Time;durP1;ratioP1;P1;durP2;ratioP2;P2;SDS_P1;SDS_P2;PMS_P1;PMS_P2;Temp;Humidity;BMP_temperature;BMP_pressure;BME280_temperature;BME280_humidity;BME280_pressure;Samples;Min_cycle;Max_cycle;Signal;HPM_P1;HPM_P2
2021/05/22 00:01:44;;;;;;;0.75;0.40;;;;;;;;;;5042685;28;20026;-78
2021/05/22 00:04:10;;;;;;;0.30;0.30;;;;;;;;;;5045195;28;20042;-79
2021/05/22 00:06:36;;;;;;;1.65;0.30;;;;;;;;;;5040246;28;20148;-79
2021/05/22 00:09:03;;;;;;;1.33;0.40;;;;;;;;;;5038232;28;20018;-80
2021/05/22 00:11:29;;;;;;;0.10;0.10;;;;;;;;;;5047709;28;20032;-79
2021/05/22 00:13:56;;;;;;;0.60;0.30;;;;;;;;;;5056440;28;20408;-79
2021/05/22 00:16:22;;;;;;;0.28;0.20;;;;;;;;;;5058504;28;20024;-79
2021/05/22 00:18:48;;;;;;;0.55;0.20;;;;;;;;;;5058408;28;20021;-79
2021/05/22 00:21:14;;;;;;;0.35;0.35;;;;;;;;;;5056339;28;20062;-79
2021/05/22 00:23:40;;;;;;;0.32;0.32;;;;;;;;;;5058311;28;20032;-79
2021/05/22 00:26:06;;;;;;;0.70;0.20;;;;;;;;;;5057063;28;20503;-79
2021/05/22 00:28:32;;;;;;;1.20;0.40;;;;;;;;;;5058383;28;20056;-79
2021/05/22 00:30:58;;;;;;;0.55;0.30;;;;;;;;;;5058856;28;20410;-79
2021/05/22 00:33:25;;;;;;;0.10;0.10;;;;;;;;;;5056198;28;20024;-79
2021/05/22 00:35:51;;;;;;;0.10;0.10;;;;;;;;;;5057227;28;20059;-80
2021/05/22 00:38:17;;;;;;;0.17;0.17;;;;;;;;;;5059210;28;20021;-80
2021/05/22 00:40:43;;;;;;;0.30;0.30;;;;;;;;;;5057085;28;20021;-80
2021/05/22 00:43:09;;;;;;;2.22;0.60;;;;;;;;;;5042839;28;20029;-80
2021/05/22 00:45:35;;;;;;;0.20;0.20;;;;;;;;;;5038607;28;20100;-78
2021/05/22 00:48:02;;;;;;;0.35;0.20;;;;;;;;;;5036766;28;20029;-80
2021/05/22 00:50:32;;;;;;;0.17;0.10;;;;;;;;;;5043759;28;20100;-81
2021/05/22 00:52:59;;;;;;;0.40;0.20;;;;;;;;;;5045394;28;20017;-80
2021/05/22 00:55:25;;;;;;;0.20;0.20;;;;;;;;;;5036988;28;20026;-80
2021/05/22 00:57:52;;;;;;;0.30;0.30;;;;;;;;;;5037921;28;20037;-78
2021/05/22 01:00:20;;;;;;;0.95;0.20;;;;;;;;;;5038491;28;20026;-79
2021/05/22 01:02:47;;;;;;;0.82;0.40;;;;;;;;;;5056179;28;20029;-79
2021/05/22 01:05:14;;;;;;;0.20;0.20;;;;;;;;;;5057213;28;20078;-79
2021/05/22 01:07:41;;;;;;;3.13;0.38;;;;;;;;;;5057177;28;20032;-79
2021/05/22 01:10:07;;;;;;;0.15;0.15;;;;;;;;;;5060197;28;20047;-79
2021/05/22 01:12:35;;;;;;;0.28;0.28;;;;;;;;;;5057627;28;20384;-79
2021/05/22 01:15:22;;;;;;;0.30;0.20;;;;;;;;;;5061533;28;20028;-79
2021/05/22 01:17:49;;;;;;;0.82;0.55;;;;;;;;;;5060277;28;20102;-79
2021/05/22 01:20:45;;;;;;;0.40;0.40;;;;;;;;;;5059394;28;20492;-79
2021/05/22 01:23:21;;;;;;;0.25;0.10;;;;;;;;;;5038334;28;20473;-79
2021/05/22 01:25:47;;;;;;;0.30;0.30;;;;;;;;;;5038393;28;20029;-78
2021/05/22 01:28:13;;;;;;;0.10;0.10;;;;;;;;;;5037674;28;20089;-78
2021/05/22 01:30:40;;;;;;;0.50;0.30;;;;;;;;;;5038497;28;20060;-79
2021/05/22 01:33:08;;;;;;;0.47;0.22;;;;;;;;;;5055795;28;20025;-79
2021/05/22 01:35:35;;;;;;;0.15;0.10;;;;;;;;;;5063020;28;20017;-78
2021/05/22 01:38:01;;;;;;;0.73;0.20;;;;;;;;;;5065268;28;20033;-78
2021/05/22 01:40:27;;;;;;;0.05;0.05;;;;;;;;;;5063953;28;20025;-78
2021/05/22 01:42:53;;;;;;;0.30;0.10;;;;;;;;;;5050226;28;20033;-78
2021/05/22 01:45:22;;;;;;;0.52;0.20;;;;;;;;;;5040167;28;20080;-79
2021/05/22 01:47:49;;;;;;;0.20;0.10;;;;;;;;;;5040790;28;20386;-79
2021/05/22 01:50:17;;;;;;;0.20;0.20;;;;;;;;;;5048563;28;20112;-79
2021/05/22 01:52:44;;;;;;;0.10;0.10;;;;;;;;;;5053028;28;20021;-79
2021/05/22 01:55:11;;;;;;;0.73;0.20;;;;;;;;;;5060066;28;20052;-80
2021/05/22 01:57:38;;;;;;;0.85;0.10;;;;;;;;;;5065969;28;20451;-79
2021/05/22 02:00:05;;;;;;;0.03;0.00;;;;;;;;;;5067360;28;20060;-79
2021/05/22 02:02:31;;;;;;;0.20;0.20;;;;;;;;;;5059649;28;20096;-79
2021/05/22 02:04:59;;;;;;;0.22;0.10;;;;;;;;;;5041402;28;20064;-78
2021/05/22 02:07:26;;;;;;;0.10;0.10;;;;;;;;;;5046165;28;20152;-78
2021/05/22 02:09:53;;;;;;;0.10;0.10;;;;;;;;;;5045803;28;20029;-78
2021/05/22 02:12:21;;;;;;;0.13;0.05;;;;;;;;;;5050567;28;20195;-77
2021/05/22 02:14:48;;;;;;;1.60;0.00;;;;;;;;;;5069649;28;20052;-79
2021/05/22 02:17:15;;;;;;;0.00;0.00;;;;;;;;;;5059901;28;20025;-80
2021/05/22 02:19:44;;;;;;;1.02;0.10;;;;;;;;;;5058861;28;20064;-79
2021/05/22 02:22:12;;;;;;;0.03;0.03;;;;;;;;;;5051076;28;20057;-78
2021/05/22 02:24:38;;;;;;;0.85;0.20;;;;;;;;;;5057946;28;20037;-77
2021/05/22 02:27:05;;;;;;;0.00;0.00;;;;;;;;;;5051873;28;20536;-78
2021/05/22 02:29:34;;;;;;;0.30;0.10;;;;;;;;;;5041551;28;20112;-78
2021/05/22 02:32:01;;;;;;;0.00;0.00;;;;;;;;;;5040580;28;20041;-78
2021/05/22 02:34:29;;;;;;;0.65;0.10;;;;;;;;;;5040598;28;20462;-79
2021/05/22 02:36:56;;;;;;;0.63;0.10;;;;;;;;;;5042181;28;20060;-78
2021/05/22 02:39:22;;;;;;;0.32;0.10;;;;;;;;;;5046073;28;20044;-79
2021/05/22 02:41:49;;;;;;;0.13;0.13;;;;;;;;;;5045088;28;20046;-79
2021/05/22 02:44:17;;;;;;;0.17;0.10;;;;;;;;;;5056917;28;20055;-79
2021/05/22 02:46:45;;;;;;;0.30;0.10;;;;;;;;;;5057169;28;20075;-79
2021/05/22 02:49:12;;;;;;;0.30;0.13;;;;;;;;;;5059119;28;20074;-79
2021/05/22 02:51:39;;;;;;;0.20;0.08;;;;;;;;;;5053851;28;20381;-80
2021/05/22 02:54:06;;;;;;;0.75;0.08;;;;;;;;;;5040800;28;20060;-80
2021/05/22 02:56:32;;;;;;;0.32;0.10;;;;;;;;;;5040164;28;20034;-80
2021/05/22 02:58:59;;;;;;;0.30;0.10;;;;;;;;;;5040889;28;20037;-80
2021/05/22 03:01:26;;;;;;;0.20;0.00;;;;;;;;;;5042166;28;20139;-79
2021/05/22 03:03:54;;;;;;;0.75;0.38;;;;;;;;;;5059040;28;20053;-79
2021/05/22 03:06:20;;;;;;;0.10;0.00;;;;;;;;;;5064747;28;20037;-79
2021/05/22 03:08:48;;;;;;;0.32;0.13;;;;;;;;;;5063702;28;20095;-78
2021/05/22 03:11:15;;;;;;;1.85;0.10;;;;;;;;;;5067652;28;20078;-78
2021/05/22 03:13:41;;;;;;;0.30;0.10;;;;;;;;;;5053300;28;20041;-79
2021/05/22 03:16:07;;;;;;;0.20;0.20;;;;;;;;;;5045959;28;20026;-78
2021/05/22 03:18:33;;;;;;;0.10;0.10;;;;;;;;;;5045969;28;20029;-79
2021/05/22 03:20:59;;;;;;;0.00;0.00;;;;;;;;;;5061655;28;20474;-78
2021/05/22 03:23:26;;;;;;;0.10;0.10;;;;;;;;;;5058667;28;20029;-78
2021/05/22 03:25:52;;;;;;;0.10;0.10;;;;;;;;;;5066006;28;20035;-78
2021/05/22 03:28:18;;;;;;;2.08;0.10;;;;;;;;;;5064939;28;20029;-79
2021/05/22 03:30:44;;;;;;;0.10;0.10;;;;;;;;;;5066776;28;20025;-76
2021/05/22 03:33:10;;;;;;;0.28;0.28;;;;;;;;;;5051047;28;20029;-78
2021/05/22 03:35:36;;;;;;;0.40;0.28;;;;;;;;;;5046856;28;20041;-78
2021/05/22 03:38:03;;;;;;;0.10;0.10;;;;;;;;;;5046320;28;20149;-78
2021/05/22 03:40:29;;;;;;;0.57;0.15;;;;;;;;;;5045877;28;20021;-78
2021/05/22 03:42:55;;;;;;;0.52;0.10;;;;;;;;;;5055669;28;20032;-78
2021/05/22 03:45:21;;;;;;;0.03;0.03;;;;;;;;;;5065333;28;20488;-78
2021/05/22 03:47:47;;;;;;;0.25;0.20;;;;;;;;;;5065278;28;20028;-78
2021/05/22 03:50:13;;;;;;;0.13;0.10;;;;;;;;;;5062852;28;20754;-79
2021/05/22 03:52:40;;;;;;;0.30;0.20;;;;;;;;;;5060465;28;20144;-79
2021/05/22 03:55:07;;;;;;;0.10;0.10;;;;;;;;;;5065283;28;20135;-79
2021/05/22 03:57:33;;;;;;;1.35;0.10;;;;;;;;;;5066296;28;20040;-79
2021/05/22 04:00:00;;;;;;;0.52;0.13;;;;;;;;;;5067558;28;20176;-80
2021/05/22 04:02:26;;;;;;;0.10;0.10;;;;;;;;;;5049363;28;20044;-80
2021/05/22 04:04:53;;;;;;;0.32;0.17;;;;;;;;;;5045860;28;20089;-80
2021/05/22 04:07:19;;;;;;;0.35;0.10;;;;;;;;;;5047870;28;20022;-80
2021/05/22 04:09:45;;;;;;;0.65;0.20;;;;;;;;;;5048306;28;20017;-80
2021/05/22 04:12:11;;;;;;;0.20;0.10;;;;;;;;;;5047511;28;20035;-78
2021/05/22 04:14:37;;;;;;;0.52;0.20;;;;;;;;;;5044290;28;20026;-80
2021/05/22 04:17:03;;;;;;;1.20;0.20;;;;;;;;;;5045964;28;20089;-78
2021/05/22 04:19:29;;;;;;;0.45;0.17;;;;;;;;;;5047489;28;20055;-79
2021/05/22 04:21:55;;;;;;;0.10;0.10;;;;;;;;;;5057171;28;20025;-78
2021/05/22 04:24:21;;;;;;;0.22;0.10;;;;;;;;;;5064861;28;20540;-80
2021/05/22 04:26:47;;;;;;;0.15;0.15;;;;;;;;;;5065490;28;20124;-78
2021/05/22 04:29:13;;;;;;;0.20;0.20;;;;;;;;;;5061721;28;20032;-80
2021/05/22 04:31:40;;;;;;;0.35;0.10;;;;;;;;;;5053244;28;20033;-78
2021/05/22 04:34:06;;;;;;;0.10;0.10;;;;;;;;;;5054899;28;20024;-78
2021/05/22 04:36:32;;;;;;;0.30;0.10;;;;;;;;;;5056080;28;20101;-78
2021/05/22 04:38:58;;;;;;;1.15;0.20;;;;;;;;;;5056224;28;20021;-77
2021/05/22 04:41:24;;;;;;;4.45;0.25;;;;;;;;;;5067378;28;20025;-77
2021/05/22 04:43:50;;;;;;;0.10;0.10;;;;;;;;;;5074555;28;20044;-78
2021/05/22 04:46:16;;;;;;;0.25;0.25;;;;;;;;;;5075704;28;20029;-78
2021/05/22 04:48:42;;;;;;;0.10;0.10;;;;;;;;;;5075295;28;20017;-78
2021/05/22 04:51:10;;;;;;;0.20;0.10;;;;;;;;;;5074606;28;20024;-78
2021/05/22 04:53:36;;;;;;;0.40;0.10;;;;;;;;;;5061054;28;20014;-79
2021/05/22 04:56:03;;;;;;;0.20;0.20;;;;;;;;;;5055911;28;20017;-79
2021/05/22 04:58:29;;;;;;;0.20;0.20;;;;;;;;;;5055602;28;20025;-78
2021/05/22 05:00:55;;;;;;;0.00;0.00;;;;;;;;;;5056333;28;20221;-79
2021/05/22 05:03:21;;;;;;;0.93;0.17;;;;;;;;;;5054670;28;20033;-78
2021/05/22 05:05:47;;;;;;;0.70;0.10;;;;;;;;;;5055806;28;20024;-78
2021/05/22 05:08:18;;;;;;;0.10;0.10;;;;;;;;;;5059407;28;20032;-78
2021/05/22 05:10:45;;;;;;;0.32;0.10;;;;;;;;;;5063965;28;20024;-78
2021/05/22 05:13:12;;;;;;;0.13;0.10;;;;;;;;;;5059214;28;20063;-78
2021/05/22 05:15:39;;;;;;;0.77;0.13;;;;;;;;;;5056174;28;20041;-78
2021/05/22 05:18:05;;;;;;;0.17;0.17;;;;;;;;;;5050231;28;20060;-78
2021/05/22 05:20:31;;;;;;;0.10;0.10;;;;;;;;;;5068273;28;20073;-78
2021/05/22 05:22:57;;;;;;;0.20;0.10;;;;;;;;;;5069837;28;20051;-78
2021/05/22 05:25:23;;;;;;;0.52;0.10;;;;;;;;;;5079238;28;20037;-79
2021/05/22 05:27:49;;;;;;;0.15;0.15;;;;;;;;;;5075070;28;20037;-78
2021/05/22 05:30:16;;;;;;;1.13;0.10;;;;;;;;;;5070557;28;20013;-80
2021/05/22 05:32:42;;;;;;;0.30;0.10;;;;;;;;;;5052568;28;20025;-80
2021/05/22 05:35:10;;;;;;;0.40;0.20;;;;;;;;;;5049706;28;20081;-79
2021/05/22 05:37:36;;;;;;;0.82;0.10;;;;;;;;;;5046702;28;20498;-79
2021/05/22 05:40:02;;;;;;;0.13;0.10;;;;;;;;;;5047720;28;20029;-79
2021/05/22 05:42:28;;;;;;;0.10;0.10;;;;;;;;;;5067121;28;20033;-80
2021/05/22 05:44:54;;;;;;;2.17;0.30;;;;;;;;;;5066806;28;20040;-79
2021/05/22 05:47:20;;;;;;;0.10;0.10;;;;;;;;;;5066525;28;20036;-79
2021/05/22 05:49:46;;;;;;;0.13;0.10;;;;;;;;;;5056432;28;20029;-79
2021/05/22 05:52:12;;;;;;;0.88;0.30;;;;;;;;;;5055832;28;20077;-77
2021/05/22 05:54:38;;;;;;;0.30;0.20;;;;;;;;;;5066899;28;20024;-79
2021/05/22 05:57:05;;;;;;;1.55;0.22;;;;;;;;;;5062733;28;20055;-79
2021/05/22 05:59:31;;;;;;;5.13;0.30;;;;;;;;;;5055297;28;20382;-77
2021/05/22 06:01:57;;;;;;;0.20;0.20;;;;;;;;;;5040458;28;20032;-79
2021/05/22 06:04:23;;;;;;;1.00;0.35;;;;;;;;;;5040819;28;20584;-79
2021/05/22 06:06:50;;;;;;;1.90;0.20;;;;;;;;;;5040906;28;20030;-77
2021/05/22 06:09:16;;;;;;;0.77;0.30;;;;;;;;;;5040471;28;20017;-78
2021/05/22 06:11:43;;;;;;;0.50;0.10;;;;;;;;;;5038567;28;20025;-79
2021/05/22 06:14:16;;;;;;;1.90;0.40;;;;;;;;;;5037928;28;20017;-78
2021/05/22 06:16:43;;;;;;;0.32;0.15;;;;;;;;;;5039209;28;20021;-77
2021/05/22 06:19:09;;;;;;;3.15;0.50;;;;;;;;;;5053629;28;20100;-77
2021/05/22 06:21:37;;;;;;;1.05;0.20;;;;;;;;;;5044708;28;20044;-77
2021/05/22 06:24:04;;;;;;;0.95;0.50;;;;;;;;;;5069495;28;20025;-78
2021/05/22 06:26:30;;;;;;;0.60;0.30;;;;;;;;;;5040798;28;20065;-78
2021/05/22 06:28:56;;;;;;;0.25;0.20;;;;;;;;;;5041222;28;20033;-78
2021/05/22 06:31:23;;;;;;;1.15;0.30;;;;;;;;;;5038767;28;20083;-78
2021/05/22 06:33:49;;;;;;;0.63;0.30;;;;;;;;;;5039018;28;20028;-78
2021/05/22 06:36:15;;;;;;;3.40;1.13;;;;;;;;;;5040291;28;20029;-77
2021/05/22 06:38:41;;;;;;;1.63;0.20;;;;;;;;;;5042163;28;20047;-78
2021/05/22 06:41:07;;;;;;;2.42;0.30;;;;;;;;;;5060186;28;20052;-78
2021/05/22 06:43:33;;;;;;;0.17;0.13;;;;;;;;;;5059208;28;20024;-77
2021/05/22 06:48:46;;;;;;;1.00;0.40;;;;;;;;;;5047160;28;20108;-77
2021/05/22 06:51:12;;;;;;;1.17;0.52;;;;;;;;;;5055447;28;20024;-79
2021/05/22 06:53:38;;;;;;;0.38;0.25;;;;;;;;;;5043044;28;20028;-79
2021/05/22 06:56:05;;;;;;;1.35;0.30;;;;;;;;;;5037775;28;20026;-79
2021/05/22 06:58:31;;;;;;;0.80;0.68;;;;;;;;;;5037242;28;20065;-79
2021/05/22 07:00:57;;;;;;;1.23;0.60;;;;;;;;;;5052398;28;20125;-79
2021/05/22 07:03:23;;;;;;;1.05;0.30;;;;;;;;;;5056407;28;20044;-78
2021/05/22 07:05:49;;;;;;;2.20;0.60;;;;;;;;;;5055850;28;20025;-78
2021/05/22 07:08:17;;;;;;;2.13;1.10;;;;;;;;;;5055549;28;20025;-78
2021/05/22 07:10:43;;;;;;;1.70;1.50;;;;;;;;;;5055794;28;20029;-79
2021/05/22 07:13:09;;;;;;;11.23;8.48;;;;;;;;;;5054876;28;20025;-79
2021/05/22 07:15:35;;;;;;;11.45;8.73;;;;;;;;;;5053398;28;20120;-79
2021/05/22 07:18:01;;;;;;;3.08;2.10;;;;;;;;;;5053185;28;20021;-79
2021/05/22 07:20:27;;;;;;;4.65;4.18;;;;;;;;;;5054957;28;20445;-78
2021/05/22 07:22:55;;;;;;;5.35;2.28;;;;;;;;;;5045829;28;20017;-77
2021/05/22 07:25:23;;;;;;;10.15;5.40;;;;;;;;;;5053363;28;20387;-77
2021/05/22 07:27:51;;;;;;;4.05;1.60;;;;;;;;;;5052614;28;20021;-78
2021/05/22 07:30:17;;;;;;;29.55;15.77;;;;;;;;;;5037397;28;20030;-77
2021/05/22 07:32:45;;;;;;;20.45;11.63;;;;;;;;;;5037341;28;20021;-77
2021/05/22 07:35:11;;;;;;;11.48;5.57;;;;;;;;;;5034899;28;20114;-77
2021/05/22 07:37:38;;;;;;;8.18;4.75;;;;;;;;;;5052926;28;20551;-78
2021/05/22 07:40:05;;;;;;;3.33;2.33;;;;;;;;;;5054194;28;20473;-78
2021/05/22 07:42:31;;;;;;;12.43;6.60;;;;;;;;;;5052954;28;20021;-77
2021/05/22 07:44:57;;;;;;;9.90;4.55;;;;;;;;;;5054085;28;20490;-77
2021/05/22 07:47:24;;;;;;;3.80;2.47;;;;;;;;;;5055205;28;20036;-77
2021/05/22 07:49:51;;;;;;;6.35;1.52;;;;;;;;;;5053567;28;20036;-77
2021/05/22 07:52:18;;;;;;;3.50;1.10;;;;;;;;;;5045768;28;20020;-79
2021/05/22 07:54:44;;;;;;;9.63;4.10;;;;;;;;;;5054588;28;20028;-79
2021/05/22 07:57:11;;;;;;;5.72;1.65;;;;;;;;;;5052520;28;20409;-79
2021/05/22 07:59:37;;;;;;;3.92;1.45;;;;;;;;;;5054059;28;20099;-78
2021/05/22 08:02:04;;;;;;;1.95;0.90;;;;;;;;;;5054457;28;20033;-79
2021/05/22 08:04:30;;;;;;;4.85;0.82;;;;;;;;;;5052498;28;20040;-79
2021/05/22 08:06:56;;;;;;;2.03;0.70;;;;;;;;;;5034342;28;20022;-78
2021/05/22 08:09:23;;;;;;;2.05;0.85;;;;;;;;;;5033253;28;20024;-79
2021/05/22 08:11:49;;;;;;;3.17;1.10;;;;;;;;;;5034695;28;20025;-79
2021/05/22 08:14:15;;;;;;;2.30;1.00;;;;;;;;;;5036343;28;20441;-78
2021/05/22 08:16:42;;;;;;;2.75;0.90;;;;;;;;;;5044409;28;20031;-78
2021/05/22 08:19:08;;;;;;;4.75;0.90;;;;;;;;;;5042923;28;20052;-79
2021/05/22 08:21:35;;;;;;;1.77;0.73;;;;;;;;;;5074158;28;20028;-80
2021/05/22 08:24:01;;;;;;;3.28;0.80;;;;;;;;;;5048283;28;20033;-78
2021/05/22 08:26:27;;;;;;;2.88;0.77;;;;;;;;;;5054710;28;20036;-77
2021/05/22 08:28:54;;;;;;;1.42;0.60;;;;;;;;;;5062457;28;20025;-77
2021/05/22 08:31:21;;;;;;;3.60;0.98;;;;;;;;;;5063101;28;20040;-77
2021/05/22 08:33:47;;;;;;;3.85;0.73;;;;;;;;;;5059349;28;20048;-78
2021/05/22 08:36:13;;;;;;;3.55;0.70;;;;;;;;;;5062747;28;20021;-78
2021/05/22 08:38:39;;;;;;;3.95;0.80;;;;;;;;;;5062624;28;20053;-78
2021/05/22 08:41:05;;;;;;;2.45;1.10;;;;;;;;;;5062199;28;20111;-78
2021/05/22 08:43:32;;;;;;;1.08;0.82;;;;;;;;;;5058328;28;20021;-77
2021/05/22 08:45:58;;;;;;;4.90;0.98;;;;;;;;;;5054728;28;20064;-77
2021/05/22 08:48:24;;;;;;;1.83;0.70;;;;;;;;;;5037925;28;20029;-78
2021/05/22 08:50:50;;;;;;;0.98;0.50;;;;;;;;;;5040803;28;20032;-79
2021/05/22 08:53:17;;;;;;;4.35;0.73;;;;;;;;;;5072721;28;20025;-79
2021/05/22 08:55:43;;;;;;;2.45;0.60;;;;;;;;;;5058942;28;20497;-76
2021/05/22 08:58:09;;;;;;;4.57;0.80;;;;;;;;;;5038822;28;20627;-76
2021/05/22 09:00:39;;;;;;;3.05;0.88;;;;;;;;;;5040068;28;20145;-77
2021/05/22 09:03:09;;;;;;;6.22;1.25;;;;;;;;;;5038363;28;20060;-78
2021/05/22 09:05:36;;;;;;;2.10;0.50;;;;;;;;;;5039691;28;20052;-79
2021/05/22 09:08:06;;;;;;;2.30;0.75;;;;;;;;;;5048367;28;20021;-78
2021/05/22 09:10:33;;;;;;;6.00;0.88;;;;;;;;;;5054092;28;20497;-78
2021/05/22 09:13:00;;;;;;;6.18;1.35;;;;;;;;;;5052042;28;20057;-77
2021/05/22 09:15:28;;;;;;;3.95;0.80;;;;;;;;;;5054320;28;20118;-79
2021/05/22 09:17:57;;;;;;;3.83;0.80;;;;;;;;;;5043842;28;20025;-79
2021/05/22 09:20:24;;;;;;;1.58;0.70;;;;;;;;;;5042300;28;20099;-78
2021/05/22 09:23:01;;;;;;;0.75;0.30;;;;;;;;;;5052506;28;20033;-78
2021/05/22 09:25:31;;;;;;;2.38;0.68;;;;;;;;;;5051619;28;20033;-80
2021/05/22 09:27:57;;;;;;;2.17;0.50;;;;;;;;;;5035224;28;20036;-78
2021/05/22 09:30:24;;;;;;;2.58;0.80;;;;;;;;;;5033155;28;20092;-79
2021/05/22 09:32:52;;;;;;;4.03;0.85;;;;;;;;;;5034238;28;20049;-79
2021/05/22 09:35:18;;;;;;;2.58;0.80;;;;;;;;;;5034796;28;20022;-78
2021/05/22 09:37:47;;;;;;;1.85;0.65;;;;;;;;;;5051257;28;20111;-79
2021/05/22 09:40:15;;;;;;;3.20;0.70;;;;;;;;;;5056541;28;20037;-81
2021/05/22 09:42:41;;;;;;;3.90;1.05;;;;;;;;;;5055238;28;20021;-80
2021/05/22 09:45:26;;;;;;;4.50;1.20;;;;;;;;;;5058804;28;20083;-80
2021/05/22 09:47:52;;;;;;;7.15;3.42;;;;;;;;;;5040869;28;20026;-80
2021/05/22 09:50:26;;;;;;;11.95;4.03;;;;;;;;;;5045391;28;20025;-80
2021/05/22 09:52:53;;;;;;;11.50;5.70;;;;;;;;;;5049264;28;20017;-79
2021/05/22 09:55:20;;;;;;;8.70;3.50;;;;;;;;;;5059937;28;20056;-79
2021/05/22 09:57:46;;;;;;;8.30;4.47;;;;;;;;;;5060664;28;20067;-80
2021/05/22 10:00:18;;;;;;;8.18;4.78;;;;;;;;;;5062934;28;20059;-79
2021/05/22 10:02:48;;;;;;;3.55;1.30;;;;;;;;;;5065527;28;20021;-80
2021/05/22 10:05:22;;;;;;;4.55;0.80;;;;;;;;;;5061684;28;20036;-81
2021/05/22 10:07:49;;;;;;;2.45;1.20;;;;;;;;;;5049970;28;20040;-79
2021/05/22 10:10:16;;;;;;;1.92;1.25;;;;;;;;;;5041285;28;20030;-80
2021/05/22 10:12:46;;;;;;;3.90;1.27;;;;;;;;;;5040933;28;20029;-81
2021/05/22 10:15:13;;;;;;;5.68;1.30;;;;;;;;;;5041484;28;20018;-81
2021/05/22 10:17:40;;;;;;;3.97;1.63;;;;;;;;;;5047731;28;20091;-80
2021/05/22 10:20:06;;;;;;;4.63;1.10;;;;;;;;;;5062142;28;20033;-80
2021/05/22 10:22:33;;;;;;;3.28;1.40;;;;;;;;;;5050630;28;20026;-79
2021/05/22 10:25:01;;;;;;;1.50;1.05;;;;;;;;;;5043988;28;20034;-80
2021/05/22 10:27:27;;;;;;;2.53;0.73;;;;;;;;;;5042809;28;20109;-78
2021/05/22 10:29:54;;;;;;;1.83;1.00;;;;;;;;;;5060522;28;20021;-80
2021/05/22 10:32:22;;;;;;;2.47;0.60;;;;;;;;;;5061507;28;20481;-81
2021/05/22 10:34:49;;;;;;;2.60;0.98;;;;;;;;;;5061965;28;20028;-80
2021/05/22 10:37:36;;;;;;;3.55;0.82;;;;;;;;;;5062894;28;20487;-80
2021/05/22 10:40:02;;;;;;;3.42;0.90;;;;;;;;;;5047384;28;20037;-80
2021/05/22 10:42:28;;;;;;;2.22;0.80;;;;;;;;;;5043823;28;20084;-80
2021/05/22 10:44:55;;;;;;;1.25;0.60;;;;;;;;;;5045128;28;20034;-80
2021/05/22 10:47:22;;;;;;;3.47;1.20;;;;;;;;;;5048841;28;20026;-79
2021/05/22 10:49:51;;;;;;;3.90;1.08;;;;;;;;;;5064166;28;20426;-78
2021/05/22 10:52:23;;;;;;;1.70;0.63;;;;;;;;;;5063135;28;20025;-79
2021/05/22 10:54:58;;;;;;;3.67;1.30;;;;;;;;;;5044144;28;20025;-79
2021/05/22 10:57:25;;;;;;;1.27;0.57;;;;;;;;;;5046019;28;20061;-80
2021/05/22 11:00:10;;;;;;;0.77;0.47;;;;;;;;;;5055001;28;20029;-79
2021/05/22 11:02:38;;;;;;;1.90;0.73;;;;;;;;;;5059755;28;20045;-79
2021/05/22 11:07:53;;;;;;;2.53;0.90;;;;;;;;;;5060166;28;20060;-81
2021/05/22 11:10:37;;;;;;;1.48;0.60;;;;;;;;;;5059468;28;20033;-79
2021/05/22 11:13:04;;;;;;;1.42;0.77;;;;;;;;;;5059577;28;20029;-79
2021/05/22 11:15:44;;;;;;;1.30;0.60;;;;;;;;;;5060392;28;20040;-78
2021/05/22 11:18:10;;;;;;;2.42;0.93;;;;;;;;;;5050754;28;20025;-78
2021/05/22 11:20:38;;;;;;;1.88;0.57;;;;;;;;;;5042432;28;20021;-79
2021/05/22 11:23:04;;;;;;;6.55;4.13;;;;;;;;;;5047175;28;20095;-79
2021/05/22 11:25:51;;;;;;;3.92;2.10;;;;;;;;;;5039561;28;20108;-79
2021/05/22 11:28:21;;;;;;;3.88;3.50;;;;;;;;;;5045090;28;20028;-78
2021/05/22 11:30:50;;;;;;;4.10;3.50;;;;;;;;;;5061676;28;20025;-78
2021/05/22 11:33:22;;;;;;;1.38;0.80;;;;;;;;;;5058965;28;20027;-79
2021/05/22 11:35:50;;;;;;;;;;;;;;;;;;5056647;28;20053;-79
2021/05/22 11:38:19;;;;;;;2.00;0.57;;;;;;;;;;5037780;28;19972;-79
2021/05/22 11:40:45;;;;;;;0.45;0.40;;;;;;;;;;5039807;28;20029;-79
2021/05/22 11:43:15;;;;;;;1.95;0.63;;;;;;;;;;5038739;28;20101;-79
2021/05/22 11:45:41;;;;;;;2.92;0.60;;;;;;;;;;5039809;28;20033;-79
2021/05/22 11:48:23;;;;;;;0.82;0.45;;;;;;;;;;5056994;28;20029;-79
2021/05/22 11:50:49;;;;;;;1.70;0.47;;;;;;;;;;5059588;28;20449;-80
2021/05/22 11:53:15;;;;;;;1.92;0.52;;;;;;;;;;5051996;28;20025;-79
2021/05/22 11:55:42;;;;;;;3.40;0.80;;;;;;;;;;5059862;28;20101;-79
2021/05/22 11:58:11;;;;;;;0.82;0.50;;;;;;;;;;5043121;28;20053;-79
2021/05/22 12:00:37;;;;;;;0.82;0.65;;;;;;;;;;5033848;28;20029;-78
2021/05/22 12:03:03;;;;;;;3.35;1.05;;;;;;;;;;5035246;28;20470;-77
2021/05/22 12:05:40;;;;;;;3.40;0.80;;;;;;;;;;5039610;28;20032;-78
2021/05/22 12:08:14;;;;;;;3.42;0.65;;;;;;;;;;5052597;28;20055;-78
2021/05/22 12:10:40;;;;;;;4.47;0.80;;;;;;;;;;5053835;28;20024;-78
2021/05/22 12:13:06;;;;;;;1.05;0.52;;;;;;;;;;5053881;28;20441;-78
2021/05/22 12:15:33;;;;;;;3.05;0.93;;;;;;;;;;5053321;28;20410;-77
2021/05/22 12:18:00;;;;;;;2.95;0.57;;;;;;;;;;5053622;28;20032;-77
2021/05/22 12:20:27;;;;;;;2.70;1.13;;;;;;;;;;5054205;28;20024;-78
2021/05/22 12:22:53;;;;;;;1.02;0.60;;;;;;;;;;5046530;28;20385;-78
2021/05/22 12:25:19;;;;;;;1.30;0.70;;;;;;;;;;5054132;28;20033;-78
2021/05/22 12:27:46;;;;;;;0.95;0.63;;;;;;;;;;5034039;28;20030;-79
2021/05/22 12:30:12;;;;;;;2.90;0.93;;;;;;;;;;5033314;28;20026;-78
2021/05/22 12:32:38;;;;;;;4.00;0.47;;;;;;;;;;5033382;28;20036;-76
2021/05/22 12:35:06;;;;;;;1.42;0.60;;;;;;;;;;5035605;28;20288;-78
2021/05/22 12:37:33;;;;;;;2.60;0.77;;;;;;;;;;5048972;28;20078;-80
2021/05/22 12:40:09;;;;;;;1.70;0.50;;;;;;;;;;5054894;28;20025;-79
2021/05/22 12:42:36;;;;;;;5.53;1.08;;;;;;;;;;5053530;28;20024;-77
2021/05/22 12:45:12;;;;;;;5.78;2.95;;;;;;;;;;5054557;28;20044;-79
2021/05/22 12:47:39;;;;;;;2.88;2.00;;;;;;;;;;5044946;28;20064;-80
2021/05/22 12:50:07;;;;;;;3.47;0.98;;;;;;;;;;5053472;28;20017;-79
2021/05/22 12:52:52;;;;;;;1.77;0.68;;;;;;;;;;5049533;28;20337;-79
2021/05/22 12:55:22;;;;;;;2.13;0.60;;;;;;;;;;5061088;28;20017;-80
2021/05/22 12:57:48;;;;;;;2.53;1.25;;;;;;;;;;5053551;28;20047;-79
2021/05/22 13:00:16;;;;;;;8.13;3.80;;;;;;;;;;5056974;28;20103;-79
2021/05/22 13:02:58;;;;;;;17.17;9.48;;;;;;;;;;5054815;28;20112;-77
2021/05/22 13:05:24;;;;;;;;;;;;;;;;;;5056044;28;20036;-78
2021/05/22 13:07:50;;;;;;;20.25;10.45;;;;;;;;;;5045524;28;19917;-78
2021/05/22 13:10:24;;;;;;;12.05;5.95;;;;;;;;;;5037056;28;20458;-78
2021/05/22 13:12:53;;;;;;;9.30;5.15;;;;;;;;;;5036273;28;20037;-78
2021/05/22 13:15:19;;;;;;;9.68;4.97;;;;;;;;;;5040294;28;20035;-78
2021/05/22 13:17:53;;;;;;;17.33;8.30;;;;;;;;;;5035219;28;20041;-78
2021/05/22 13:20:33;;;;;;;9.35;4.75;;;;;;;;;;5045285;28;20053;-79
2021/05/22 13:23:08;;;;;;;7.18;4.47;;;;;;;;;;5047931;28;20446;-78
2021/05/22 13:25:35;;;;;;;4.38;1.98;;;;;;;;;;5056840;28;20033;-76
2021/05/22 13:28:02;;;;;;;0.63;0.60;;;;;;;;;;5054394;28;20075;-77
2021/05/22 13:30:29;;;;;;;0.57;0.57;;;;;;;;;;5039077;28;20021;-78
2021/05/22 13:32:55;;;;;;;2.10;0.90;;;;;;;;;;5058369;28;20096;-77
2021/05/22 13:35:24;;;;;;;2.83;0.68;;;;;;;;;;5058320;28;20029;-77
2021/05/22 13:37:50;;;;;;;1.83;0.90;;;;;;;;;;5057252;28;20112;-77
2021/05/22 13:40:16;;;;;;;2.08;0.98;;;;;;;;;;5048957;28;20033;-76
2021/05/22 13:42:42;;;;;;;1.40;0.70;;;;;;;;;;5053029;28;20061;-77
2021/05/22 13:45:09;;;;;;;1.33;0.73;;;;;;;;;;5069151;28;20096;-77
2021/05/22 13:47:36;;;;;;;2.33;0.80;;;;;;;;;;5062499;28;20033;-77
2021/05/22 13:50:04;;;;;;;3.08;0.98;;;;;;;;;;5048997;28;20031;-77
2021/05/22 13:52:30;;;;;;;1.48;0.60;;;;;;;;;;5051020;28;20028;-77
2021/05/22 13:54:56;;;;;;;1.48;0.50;;;;;;;;;;5054620;28;20079;-78
2021/05/22 13:57:22;;;;;;;1.63;0.80;;;;;;;;;;5058070;28;20052;-77
2021/05/22 13:59:48;;;;;;;0.85;0.50;;;;;;;;;;5060351;28;20053;-81
2021/05/22 14:02:14;;;;;;;0.43;0.40;;;;;;;;;;5057180;28;20029;-78
2021/05/22 14:04:40;;;;;;;2.33;0.60;;;;;;;;;;5058891;28;20326;-78
2021/05/22 14:07:06;;;;;;;0.93;0.40;;;;;;;;;;5060243;28;20076;-78
2021/05/22 14:09:32;;;;;;;1.90;0.40;;;;;;;;;;5058694;28;20041;-78
2021/05/22 14:11:58;;;;;;;1.55;0.60;;;;;;;;;;5051154;28;20018;-78
2021/05/22 14:14:24;;;;;;;2.65;0.52;;;;;;;;;;5047202;28;20383;-77
2021/05/22 14:16:51;;;;;;;0.50;0.40;;;;;;;;;;5059386;28;20040;-78
2021/05/22 14:19:17;;;;;;;2.80;0.82;;;;;;;;;;5057902;28;20029;-78
2021/05/22 14:21:43;;;;;;;1.88;0.80;;;;;;;;;;5047584;28;20033;-76
2021/05/22 14:24:09;;;;;;;0.95;0.50;;;;;;;;;;5064562;28;20020;-78
2021/05/22 14:26:36;;;;;;;3.20;1.15;;;;;;;;;;5056394;28;20036;-77
2021/05/22 14:29:02;;;;;;;0.93;0.80;;;;;;;;;;5046800;28;20105;-77
2021/05/22 14:31:28;;;;;;;4.63;1.75;;;;;;;;;;5046961;28;20029;-77
2021/05/22 14:33:54;;;;;;;1.75;0.65;;;;;;;;;;5054471;28;20079;-77
2021/05/22 14:36:20;;;;;;;1.80;0.70;;;;;;;;;;5055298;28;20032;-77
2021/05/22 14:38:47;;;;;;;2.05;0.70;;;;;;;;;;5055634;28;20013;-77
2021/05/22 14:41:13;;;;;;;1.85;0.52;;;;;;;;;;5050709;28;20032;-77
2021/05/22 14:43:39;;;;;;;2.90;0.90;;;;;;;;;;5048021;28;20027;-78
2021/05/22 14:46:08;;;;;;;1.92;0.90;;;;;;;;;;5044068;28;20025;-77
2021/05/22 14:48:34;;;;;;;1.60;0.75;;;;;;;;;;5047741;28;20013;-78
2021/05/22 14:51:00;;;;;;;2.40;0.60;;;;;;;;;;5044451;28;20024;-77